sensor_id;sensor_type;location;lat;lon;timestamp;P1;durP1;ratioP1;P2;durP2;ratioP2
45356;SDS011;31092;51.924;21.448;2024-01-06T00:00:50;9.23;;;4.15;;
45356;SDS011;31092;51.924;21.448;2024-01-06T00:03:16;4.70;;;3.80;;
45356;SDS011;31092;51.924;21.448;2024-01-06T00:05:41;8.68;;;4.45;;
45356;SDS011;31092;51.924;21.448;2024-01-06T00:08:07;11.20;;;4.65;;
45356;SDS011;31092;51.924;21.448;2024-01-06T00:10:33;8.38;;;4.50;;
45356;SDS011;31092;51.924;21.448;2024-01-06T00:12:59;6.93;;;4.00;;
45356;SDS011;31092;51.924;21.448;2024-01-06T00:15:24;7.97;;;4.03;;
45356;SDS011;31092;51.924;21.448;2024-01-06T00:17:50;5.28;;;3.47;;
45356;SDS011;31092;51.924;21.448;2024-01-06T00:20:15;10.13;;;4.18;;
45356;SDS011;31092;51.924;21.448;2024-01-06T00:22:41;7.75;;;4.07;;
45356;SDS011;31092;51.924;21.448;2024-01-06T00:25:07;7.65;;;4.55;;
45356;SDS011;31092;51.924;21.448;2024-01-06T00:27:33;8.95;;;3.97;;
45356;SDS011;31092;51.924;21.448;2024-01-06T00:29:58;9.38;;;4.38;;
45356;SDS011;31092;51.924;21.448;2024-01-06T00:32:24;4.85;;;4.03;;
45356;SDS011;31092;51.924;21.448;2024-01-06T00:34:49;8.13;;;4.57;;
45356;SDS011;31092;51.924;21.448;2024-01-06T00:37:15;10.20;;;5.15;;
45356;SDS011;31092;51.924;21.448;2024-01-06T00:39:40;10.88;;;4.55;;
45356;SDS011;31092;51.924;21.448;2024-01-06T00:42:06;6.90;;;4.60;;
45356;SDS011;31092;51.924;21.448;2024-01-06T00:44:32;9.77;;;4.38;;
45356;SDS011;31092;51.924;21.448;2024-01-06T00:46:57;8.77;;;5.15;;
45356;SDS011;31092;51.924;21.448;2024-01-06T00:49:22;9.05;;;3.72;;
45356;SDS011;31092;51.924;21.448;2024-01-06T00:51:48;9.88;;;4.65;;
45356;SDS011;31092;51.924;21.448;2024-01-06T00:54:13;5.40;;;3.08;;
45356;SDS011;31092;51.924;21.448;2024-01-06T00:56:39;10.25;;;4.55;;
45356;SDS011;31092;51.924;21.448;2024-01-06T00:59:07;12.95;;;5.55;;
45356;SDS011;31092;51.924;21.448;2024-01-06T01:01:32;9.73;;;4.45;;
45356;SDS011;31092;51.924;21.448;2024-01-06T01:03:58;6.57;;;4.05;;
45356;SDS011;31092;51.924;21.448;2024-01-06T01:06:23;9.23;;;4.80;;
45356;SDS011;31092;51.924;21.448;2024-01-06T01:08:49;7.97;;;4.57;;
45356;SDS011;31092;51.924;21.448;2024-01-06T01:11:14;3.95;;;2.42;;
45356;SDS011;31092;51.924;21.448;2024-01-06T01:13:40;10.43;;;5.78;;
45356;SDS011;31092;51.924;21.448;2024-01-06T01:16:05;10.00;;;5.22;;
45356;SDS011;31092;51.924;21.448;2024-01-06T01:18:31;11.30;;;5.70;;
45356;SDS011;31092;51.924;21.448;2024-01-06T01:20:56;10.48;;;5.63;;
45356;SDS011;31092;51.924;21.448;2024-01-06T01:23:22;8.15;;;4.57;;
45356;SDS011;31092;51.924;21.448;2024-01-06T01:25:47;11.07;;;4.00;;
45356;SDS011;31092;51.924;21.448;2024-01-06T01:28:12;12.85;;;5.90;;
45356;SDS011;31092;51.924;21.448;2024-01-06T01:30:38;14.90;;;5.43;;
45356;SDS011;31092;51.924;21.448;2024-01-06T01:33:03;8.52;;;5.30;;
45356;SDS011;31092;51.924;21.448;2024-01-06T01:35:29;9.00;;;3.95;;
45356;SDS011;31092;51.924;21.448;2024-01-06T01:37:54;8.10;;;4.18;;
45356;SDS011;31092;51.924;21.448;2024-01-06T01:40:20;12.23;;;5.50;;
45356;SDS011;31092;51.924;21.448;2024-01-06T01:42:45;10.65;;;5.80;;
45356;SDS011;31092;51.924;21.448;2024-01-06T01:45:11;10.45;;;5.78;;
45356;SDS011;31092;51.924;21.448;2024-01-06T01:47:37;8.13;;;4.82;;
45356;SDS011;31092;51.924;21.448;2024-01-06T01:50:04;10.40;;;5.55;;
45356;SDS011;31092;51.924;21.448;2024-01-06T01:52:30;13.13;;;6.13;;
45356;SDS011;31092;51.924;21.448;2024-01-06T01:54:57;10.88;;;5.40;;
45356;SDS011;31092;51.924;21.448;2024-01-06T01:57:24;11.52;;;5.72;;
45356;SDS011;31092;51.924;21.448;2024-01-06T01:59:51;13.85;;;5.38;;
45356;SDS011;31092;51.924;21.448;2024-01-06T02:02:18;12.18;;;6.10;;
45356;SDS011;31092;51.924;21.448;2024-01-06T02:04:44;11.55;;;4.50;;
45356;SDS011;31092;51.924;21.448;2024-01-06T02:07:10;8.68;;;5.18;;
45356;SDS011;31092;51.924;21.448;2024-01-06T02:09:40;7.75;;;4.85;;
45356;SDS011;31092;51.924;21.448;2024-01-06T02:14:32;12.75;;;5.63;;
45356;SDS011;31092;51.924;21.448;2024-01-06T02:16:57;8.40;;;4.68;;
45356;SDS011;31092;51.924;21.448;2024-01-06T02:19:23;11.38;;;5.20;;
45356;SDS011;31092;51.924;21.448;2024-01-06T02:21:52;9.50;;;4.60;;
45356;SDS011;31092;51.924;21.448;2024-01-06T02:24:19;9.60;;;5.10;;
45356;SDS011;31092;51.924;21.448;2024-01-06T02:26:44;9.38;;;4.85;;
45356;SDS011;31092;51.924;21.448;2024-01-06T02:29:10;8.10;;;5.00;;
45356;SDS011;31092;51.924;21.448;2024-01-06T02:31:36;13.27;;;5.10;;
45356;SDS011;31092;51.924;21.448;2024-01-06T02:34:01;8.23;;;4.22;;
45356;SDS011;31092;51.924;21.448;2024-01-06T02:36:27;9.20;;;4.85;;
45356;SDS011;31092;51.924;21.448;2024-01-06T02:38:52;9.65;;;4.78;;
45356;SDS011;31092;51.924;21.448;2024-01-06T02:41:18;5.78;;;4.30;;
45356;SDS011;31092;51.924;21.448;2024-01-06T02:43:43;6.65;;;4.22;;
45356;SDS011;31092;51.924;21.448;2024-01-06T02:46:09;6.22;;;3.72;;
45356;SDS011;31092;51.924;21.448;2024-01-06T02:48:34;8.73;;;4.32;;
45356;SDS011;31092;51.924;21.448;2024-01-06T02:51:00;4.88;;;3.85;;
45356;SDS011;31092;51.924;21.448;2024-01-06T02:53:25;10.02;;;4.93;;
45356;SDS011;31092;51.924;21.448;2024-01-06T02:55:50;5.75;;;3.88;;
45356;SDS011;31092;51.924;21.448;2024-01-06T02:58:16;4.40;;;3.67;;
45356;SDS011;31092;51.924;21.448;2024-01-06T03:00:41;5.55;;;3.50;;
45356;SDS011;31092;51.924;21.448;2024-01-06T03:03:07;7.25;;;3.45;;
45356;SDS011;31092;51.924;21.448;2024-01-06T03:05:32;4.28;;;3.10;;
45356;SDS011;31092;51.924;21.448;2024-01-06T03:07:58;6.68;;;4.30;;
45356;SDS011;31092;51.924;21.448;2024-01-06T03:10:23;7.53;;;3.47;;
45356;SDS011;31092;51.924;21.448;2024-01-06T03:12:49;7.80;;;4.18;;
45356;SDS011;31092;51.924;21.448;2024-01-06T03:15:14;6.30;;;3.95;;
45356;SDS011;31092;51.924;21.448;2024-01-06T03:17:40;7.93;;;4.60;;
45356;SDS011;31092;51.924;21.448;2024-01-06T03:20:05;7.22;;;4.65;;
45356;SDS011;31092;51.924;21.448;2024-01-06T03:22:32;6.38;;;4.47;;
45356;SDS011;31092;51.924;21.448;2024-01-06T03:24:57;4.50;;;3.25;;
45356;SDS011;31092;51.924;21.448;2024-01-06T03:27:23;7.53;;;4.20;;
45356;SDS011;31092;51.924;21.448;2024-01-06T03:29:49;7.05;;;3.85;;
45356;SDS011;31092;51.924;21.448;2024-01-06T03:32:16;8.35;;;4.32;;
45356;SDS011;31092;51.924;21.448;2024-01-06T03:34:41;8.30;;;4.25;;
45356;SDS011;31092;51.924;21.448;2024-01-06T03:37:07;7.00;;;4.10;;
45356;SDS011;31092;51.924;21.448;2024-01-06T03:39:32;6.95;;;3.90;;
45356;SDS011;31092;51.924;21.448;2024-01-06T03:41:59;7.82;;;3.58;;
45356;SDS011;31092;51.924;21.448;2024-01-06T03:44:25;5.40;;;3.60;;
45356;SDS011;31092;51.924;21.448;2024-01-06T03:46:55;4.85;;;4.35;;
45356;SDS011;31092;51.924;21.448;2024-01-06T03:49:22;3.92;;;2.97;;
45356;SDS011;31092;51.924;21.448;2024-01-06T03:51:47;6.97;;;3.63;;
45356;SDS011;31092;51.924;21.448;2024-01-06T03:54:13;7.32;;;3.05;;
45356;SDS011;31092;51.924;21.448;2024-01-06T03:56:38;6.15;;;3.50;;
45356;SDS011;31092;51.924;21.448;2024-01-06T03:59:04;4.07;;;2.97;;
45356;SDS011;31092;51.924;21.448;2024-01-06T04:01:29;6.53;;;3.28;;
45356;SDS011;31092;51.924;21.448;2024-01-06T04:03:59;5.75;;;3.33;;
45356;SDS011;31092;51.924;21.448;2024-01-06T04:06:25;6.57;;;4.30;;
45356;SDS011;31092;51.924;21.448;2024-01-06T04:08:51;6.90;;;3.25;;
45356;SDS011;31092;51.924;21.448;2024-01-06T04:11:18;4.60;;;2.83;;
45356;SDS011;31092;51.924;21.448;2024-01-06T04:13:43;6.40;;;3.92;;
45356;SDS011;31092;51.924;21.448;2024-01-06T04:16:09;5.82;;;3.97;;
45356;SDS011;31092;51.924;21.448;2024-01-06T04:18:34;5.90;;;2.97;;
45356;SDS011;31092;51.924;21.448;2024-01-06T04:21:00;5.05;;;3.45;;
45356;SDS011;31092;51.924;21.448;2024-01-06T04:23:25;5.25;;;3.28;;
45356;SDS011;31092;51.924;21.448;2024-01-06T04:25:51;12.02;;;3.17;;
45356;SDS011;31092;51.924;21.448;2024-01-06T04:28:16;7.38;;;3.50;;
45356;SDS011;31092;51.924;21.448;2024-01-06T04:30:42;6.45;;;2.85;;
45356;SDS011;31092;51.924;21.448;2024-01-06T04:33:07;6.82;;;3.17;;
45356;SDS011;31092;51.924;21.448;2024-01-06T04:35:33;4.40;;;3.13;;
45356;SDS011;31092;51.924;21.448;2024-01-06T04:37:58;3.30;;;2.95;;
45356;SDS011;31092;51.924;21.448;2024-01-06T04:40:24;4.35;;;2.83;;
45356;SDS011;31092;51.924;21.448;2024-01-06T04:42:49;3.90;;;2.75;;
45356;SDS011;31092;51.924;21.448;2024-01-06T04:45:15;6.90;;;3.70;;
45356;SDS011;31092;51.924;21.448;2024-01-06T04:47:40;8.18;;;2.97;;
45356;SDS011;31092;51.924;21.448;2024-01-06T04:50:06;5.13;;;2.85;;
45356;SDS011;31092;51.924;21.448;2024-01-06T04:52:32;6.93;;;3.13;;
45356;SDS011;31092;51.924;21.448;2024-01-06T04:54:57;5.10;;;2.85;;
45356;SDS011;31092;51.924;21.448;2024-01-06T04:57:23;6.97;;;3.35;;
45356;SDS011;31092;51.924;21.448;2024-01-06T04:59:48;3.08;;;2.05;;
45356;SDS011;31092;51.924;21.448;2024-01-06T05:02:14;5.47;;;2.97;;
45356;SDS011;31092;51.924;21.448;2024-01-06T05:04:40;4.13;;;2.88;;
45356;SDS011;31092;51.924;21.448;2024-01-06T05:07:05;3.40;;;2.60;;
45356;SDS011;31092;51.924;21.448;2024-01-06T05:09:31;6.38;;;2.80;;
45356;SDS011;31092;51.924;21.448;2024-01-06T05:11:56;3.85;;;2.78;;
45356;SDS011;31092;51.924;21.448;2024-01-06T05:14:21;6.75;;;3.42;;
45356;SDS011;31092;51.924;21.448;2024-01-06T05:16:47;5.38;;;3.03;;
45356;SDS011;31092;51.924;21.448;2024-01-06T05:19:12;9.82;;;3.35;;
45356;SDS011;31092;51.924;21.448;2024-01-06T05:21:44;6.20;;;3.50;;
45356;SDS011;31092;51.924;21.448;2024-01-06T05:24:10;3.92;;;2.88;;
45356;SDS011;31092;51.924;21.448;2024-01-06T05:26:35;4.97;;;3.03;;
45356;SDS011;31092;51.924;21.448;2024-01-06T05:29:00;5.68;;;3.22;;
45356;SDS011;31092;51.924;21.448;2024-01-06T05:31:26;4.53;;;2.97;;
45356;SDS011;31092;51.924;21.448;2024-01-06T05:33:52;3.80;;;2.55;;
45356;SDS011;31092;51.924;21.448;2024-01-06T05:36:20;4.63;;;2.85;;
45356;SDS011;31092;51.924;21.448;2024-01-06T05:38:46;4.97;;;3.08;;
45356;SDS011;31092;51.924;21.448;2024-01-06T05:41:11;3.65;;;3.35;;
45356;SDS011;31092;51.924;21.448;2024-01-06T05:43:37;6.13;;;3.30;;
45356;SDS011;31092;51.924;21.448;2024-01-06T05:46:02;3.97;;;3.30;;
45356;SDS011;31092;51.924;21.448;2024-01-06T05:48:28;5.28;;;3.42;;
45356;SDS011;31092;51.924;21.448;2024-01-06T05:50:53;6.53;;;2.97;;
45356;SDS011;31092;51.924;21.448;2024-01-06T05:53:19;6.90;;;3.22;;
45356;SDS011;31092;51.924;21.448;2024-01-06T05:55:44;7.28;;;4.28;;
45356;SDS011;31092;51.924;21.448;2024-01-06T05:58:10;6.10;;;3.30;;
45356;SDS011;31092;51.924;21.448;2024-01-06T06:00:35;4.07;;;2.75;;
45356;SDS011;31092;51.924;21.448;2024-01-06T06:03:01;4.07;;;3.17;;
45356;SDS011;31092;51.924;21.448;2024-01-06T06:05:26;4.82;;;3.30;;
45356;SDS011;31092;51.924;21.448;2024-01-06T06:07:52;4.28;;;2.33;;
45356;SDS011;31092;51.924;21.448;2024-01-06T06:10:17;3.35;;;2.70;;
45356;SDS011;31092;51.924;21.448;2024-01-06T06:12:46;5.15;;;3.30;;
45356;SDS011;31092;51.924;21.448;2024-01-06T06:15:11;5.95;;;4.45;;
45356;SDS011;31092;51.924;21.448;2024-01-06T06:17:37;2.88;;;2.47;;
45356;SDS011;31092;51.924;21.448;2024-01-06T06:20:04;4.47;;;2.92;;
45356;SDS011;31092;51.924;21.448;2024-01-06T06:22:31;7.35;;;3.28;;
45356;SDS011;31092;51.924;21.448;2024-01-06T06:24:57;4.47;;;3.30;;
45356;SDS011;31092;51.924;21.448;2024-01-06T06:27:26;4.53;;;3.20;;
45356;SDS011;31092;51.924;21.448;2024-01-06T06:29:52;5.25;;;3.50;;
45356;SDS011;31092;51.924;21.448;2024-01-06T06:32:18;5.35;;;3.40;;
45356;SDS011;31092;51.924;21.448;2024-01-06T06:34:44;4.40;;;3.20;;
45356;SDS011;31092;51.924;21.448;2024-01-06T06:37:09;3.05;;;2.47;;
45356;SDS011;31092;51.924;21.448;2024-01-06T06:39:35;4.43;;;3.33;;
45356;SDS011;31092;51.924;21.448;2024-01-06T06:42:01;3.90;;;3.33;;
45356;SDS011;31092;51.924;21.448;2024-01-06T06:44:27;4.10;;;2.63;;
45356;SDS011;31092;51.924;21.448;2024-01-06T06:46:54;3.63;;;2.85;;
45356;SDS011;31092;51.924;21.448;2024-01-06T06:49:19;5.15;;;3.17;;
45356;SDS011;31092;51.924;21.448;2024-01-06T06:51:45;4.47;;;3.03;;
45356;SDS011;31092;51.924;21.448;2024-01-06T06:54:14;4.10;;;2.72;;
45356;SDS011;31092;51.924;21.448;2024-01-06T06:56:41;4.65;;;3.50;;
45356;SDS011;31092;51.924;21.448;2024-01-06T06:59:09;3.85;;;3.33;;
45356;SDS011;31092;51.924;21.448;2024-01-06T07:01:34;4.75;;;3.22;;
45356;SDS011;31092;51.924;21.448;2024-01-06T07:04:00;7.22;;;2.85;;
45356;SDS011;31092;51.924;21.448;2024-01-06T07:06:27;7.20;;;3.55;;
45356;SDS011;31092;51.924;21.448;2024-01-06T07:08:53;3.25;;;2.65;;
45356;SDS011;31092;51.924;21.448;2024-01-06T07:11:19;5.10;;;2.80;;
45356;SDS011;31092;51.924;21.448;2024-01-06T07:13:45;5.75;;;3.63;;
45356;SDS011;31092;51.924;21.448;2024-01-06T07:16:10;4.15;;;2.47;;
45356;SDS011;31092;51.924;21.448;2024-01-06T07:18:36;3.92;;;2.80;;
45356;SDS011;31092;51.924;21.448;2024-01-06T07:21:04;8.00;;;3.03;;
45356;SDS011;31092;51.924;21.448;2024-01-06T07:23:31;4.80;;;2.72;;
45356;SDS011;31092;51.924;21.448;2024-01-06T07:25:57;4.35;;;2.63;;
45356;SDS011;31092;51.924;21.448;2024-01-06T07:28:23;7.90;;;3.13;;
45356;SDS011;31092;51.924;21.448;2024-01-06T07:30:48;6.18;;;3.35;;
45356;SDS011;31092;51.924;21.448;2024-01-06T07:33:14;4.45;;;2.88;;
45356;SDS011;31092;51.924;21.448;2024-01-06T07:35:39;7.22;;;2.97;;
45356;SDS011;31092;51.924;21.448;2024-01-06T07:38:08;5.95;;;3.05;;
45356;SDS011;31092;51.924;21.448;2024-01-06T07:40:36;5.03;;;3.15;;
45356;SDS011;31092;51.924;21.448;2024-01-06T07:43:02;7.00;;;3.20;;
45356;SDS011;31092;51.924;21.448;2024-01-06T07:45:29;7.53;;;3.38;;
45356;SDS011;31092;51.924;21.448;2024-01-06T07:47:55;6.60;;;2.75;;
45356;SDS011;31092;51.924;21.448;2024-01-06T07:50:20;5.07;;;3.08;;
45356;SDS011;31092;51.924;21.448;2024-01-06T07:52:46;6.32;;;3.78;;
45356;SDS011;31092;51.924;21.448;2024-01-06T07:55:11;6.38;;;3.40;;
45356;SDS011;31092;51.924;21.448;2024-01-06T07:57:37;6.72;;;2.78;;
45356;SDS011;31092;51.924;21.448;2024-01-06T08:00:02;8.77;;;3.45;;
45356;SDS011;31092;51.924;21.448;2024-01-06T08:02:28;7.25;;;3.70;;
45356;SDS011;31092;51.924;21.448;2024-01-06T08:04:54;5.78;;;3.35;;
45356;SDS011;31092;51.924;21.448;2024-01-06T08:07:20;5.32;;;3.63;;
45356;SDS011;31092;51.924;21.448;2024-01-06T08:09:46;9.95;;;4.60;;
45356;SDS011;31092;51.924;21.448;2024-01-06T08:12:12;8.32;;;3.40;;
45356;SDS011;31092;51.924;21.448;2024-01-06T08:14:38;8.50;;;5.05;;
45356;SDS011;31092;51.924;21.448;2024-01-06T08:17:03;6.10;;;3.70;;
45356;SDS011;31092;51.924;21.448;2024-01-06T08:19:29;8.32;;;4.57;;
45356;SDS011;31092;51.924;21.448;2024-01-06T08:21:55;6.97;;;4.43;;
45356;SDS011;31092;51.924;21.448;2024-01-06T08:24:21;7.22;;;4.70;;
45356;SDS011;31092;51.924;21.448;2024-01-06T08:26:46;9.57;;;4.90;;
45356;SDS011;31092;51.924;21.448;2024-01-06T08:29:12;8.57;;;4.80;;
45356;SDS011;31092;51.924;21.448;2024-01-06T08:31:39;8.35;;;4.55;;
45356;SDS011;31092;51.924;21.448;2024-01-06T08:34:04;8.40;;;4.78;;
45356;SDS011;31092;51.924;21.448;2024-01-06T08:36:32;9.77;;;4.10;;
45356;SDS011;31092;51.924;21.448;2024-01-06T08:38:57;6.68;;;4.90;;
45356;SDS011;31092;51.924;21.448;2024-01-06T08:41:23;5.32;;;3.22;;
45356;SDS011;31092;51.924;21.448;2024-01-06T08:43:48;10.45;;;4.68;;
45356;SDS011;31092;51.924;21.448;2024-01-06T08:46:14;7.10;;;3.63;;
45356;SDS011;31092;51.924;21.448;2024-01-06T08:48:39;9.80;;;4.25;;
45356;SDS011;31092;51.924;21.448;2024-01-06T08:51:05;7.75;;;4.72;;
45356;SDS011;31092;51.924;21.448;2024-01-06T08:53:31;6.32;;;4.07;;
45356;SDS011;31092;51.924;21.448;2024-01-06T08:55:56;8.05;;;3.75;;
45356;SDS011;31092;51.924;21.448;2024-01-06T08:58:22;10.82;;;5.22;;
45356;SDS011;31092;51.924;21.448;2024-01-06T09:00:47;9.82;;;4.82;;
45356;SDS011;31092;51.924;21.448;2024-01-06T09:03:13;9.00;;;5.93;;
45356;SDS011;31092;51.924;21.448;2024-01-06T09:05:38;8.55;;;5.00;;
45356;SDS011;31092;51.924;21.448;2024-01-06T09:08:04;16.48;;;7.05;;
45356;SDS011;31092;51.924;21.448;2024-01-06T09:10:30;9.98;;;5.65;;
45356;SDS011;31092;51.924;21.448;2024-01-06T09:12:55;9.88;;;6.13;;
45356;SDS011;31092;51.924;21.448;2024-01-06T09:15:22;14.07;;;6.57;;
45356;SDS011;31092;51.924;21.448;2024-01-06T09:17:48;11.35;;;6.22;;
45356;SDS011;31092;51.924;21.448;2024-01-06T09:20:13;9.07;;;5.57;;
45356;SDS011;31092;51.924;21.448;2024-01-06T09:22:39;11.80;;;6.55;;
45356;SDS011;31092;51.924;21.448;2024-01-06T09:25:04;12.23;;;6.35;;
45356;SDS011;31092;51.924;21.448;2024-01-06T09:27:30;16.35;;;6.38;;
45356;SDS011;31092;51.924;21.448;2024-01-06T09:29:56;8.70;;;5.63;;
45356;SDS011;31092;51.924;21.448;2024-01-06T09:32:21;7.32;;;4.60;;
45356;SDS011;31092;51.924;21.448;2024-01-06T09:34:48;6.10;;;3.90;;
45356;SDS011;31092;51.924;21.448;2024-01-06T09:37:13;9.48;;;5.43;;
45356;SDS011;31092;51.924;21.448;2024-01-06T09:39:39;13.55;;;6.55;;
45356;SDS011;31092;51.924;21.448;2024-01-06T09:42:05;10.02;;;5.82;;
45356;SDS011;31092;51.924;21.448;2024-01-06T09:44:30;10.32;;;5.40;;
45356;SDS011;31092;51.924;21.448;2024-01-06T09:46:58;10.45;;;5.50;;
45356;SDS011;31092;51.924;21.448;2024-01-06T09:49:25;11.55;;;6.00;;
45356;SDS011;31092;51.924;21.448;2024-01-06T09:51:58;10.60;;;5.93;;
45356;SDS011;31092;51.924;21.448;2024-01-06T09:54:26;13.60;;;6.72;;
45356;SDS011;31092;51.924;21.448;2024-01-06T09:56:58;11.82;;;6.53;;
45356;SDS011;31092;51.924;21.448;2024-01-06T09:59:32;13.15;;;6.18;;
45356;SDS011;31092;51.924;21.448;2024-01-06T10:02:04;9.60;;;5.38;;
45356;SDS011;31092;51.924;21.448;2024-01-06T10:04:30;10.77;;;5.25;;
45356;SDS011;31092;51.924;21.448;2024-01-06T10:06:55;12.02;;;5.95;;
45356;SDS011;31092;51.924;21.448;2024-01-06T10:09:27;7.85;;;5.03;;
45356;SDS011;31092;51.924;21.448;2024-01-06T10:11:56;9.25;;;5.00;;
45356;SDS011;31092;51.924;21.448;2024-01-06T10:14:23;11.80;;;6.00;;
45356;SDS011;31092;51.924;21.448;2024-01-06T10:16:50;8.52;;;5.60;;
45356;SDS011;31092;51.924;21.448;2024-01-06T10:19:17;7.15;;;4.97;;
45356;SDS011;31092;51.924;21.448;2024-01-06T10:21:43;10.98;;;5.38;;
45356;SDS011;31092;51.924;21.448;2024-01-06T10:24:09;10.02;;;5.90;;
45356;SDS011;31092;51.924;21.448;2024-01-06T10:26:35;13.13;;;5.68;;
45356;SDS011;31092;51.924;21.448;2024-01-06T10:29:01;10.50;;;5.80;;
45356;SDS011;31092;51.924;21.448;2024-01-06T10:31:26;10.85;;;5.80;;
45356;SDS011;31092;51.924;21.448;2024-01-06T10:33:52;11.85;;;5.97;;
45356;SDS011;31092;51.924;21.448;2024-01-06T10:36:18;11.27;;;5.40;;
45356;SDS011;31092;51.924;21.448;2024-01-06T10:38:46;12.23;;;6.43;;
45356;SDS011;31092;51.924;21.448;2024-01-06T10:41:12;9.40;;;6.28;;
45356;SDS011;31092;51.924;21.448;2024-01-06T10:43:40;12.18;;;6.65;;
45356;SDS011;31092;51.924;21.448;2024-01-06T10:46:08;8.10;;;4.93;;
45356;SDS011;31092;51.924;21.448;2024-01-06T10:48:37;11.73;;;6.38;;
45356;SDS011;31092;51.924;21.448;2024-01-06T10:51:07;8.45;;;5.15;;
45356;SDS011;31092;51.924;21.448;2024-01-06T10:53:33;13.02;;;6.55;;
45356;SDS011;31092;51.924;21.448;2024-01-06T10:56:02;12.25;;;6.35;;
45356;SDS011;31092;51.924;21.448;2024-01-06T10:58:28;8.85;;;5.60;;
45356;SDS011;31092;51.924;21.448;2024-01-06T11:00:58;10.88;;;5.70;;
45356;SDS011;31092;51.924;21.448;2024-01-06T11:03:25;8.83;;;5.33;;
45356;SDS011;31092;51.924;21.448;2024-01-06T11:05:54;10.65;;;6.13;;
45356;SDS011;31092;51.924;21.448;2024-01-06T11:08:19;8.40;;;5.05;;
45356;SDS011;31092;51.924;21.448;2024-01-06T11:10:47;11.98;;;5.50;;
45356;SDS011;31092;51.924;21.448;2024-01-06T11:13:13;7.93;;;4.40;;
45356;SDS011;31092;51.924;21.448;2024-01-06T11:15:48;6.85;;;3.90;;
45356;SDS011;31092;51.924;21.448;2024-01-06T11:21:18;7.10;;;4.80;;
45356;SDS011;31092;51.924;21.448;2024-01-06T11:24:30;13.20;;;5.68;;
45356;SDS011;31092;51.924;21.448;2024-01-06T11:26:45;8.38;;;5.43;;
45356;SDS011;31092;51.924;21.448;2024-01-06T11:29:16;7.90;;;5.00;;
45356;SDS011;31092;51.924;21.448;2024-01-06T11:31:42;12.60;;;5.45;;
45356;SDS011;31092;51.924;21.448;2024-01-06T11:34:12;8.57;;;5.60;;
45356;SDS011;31092;51.924;21.448;2024-01-06T11:36:39;7.75;;;5.90;;
45356;SDS011;31092;51.924;21.448;2024-01-06T11:39:05;9.60;;;5.10;;
45356;SDS011;31092;51.924;21.448;2024-01-06T11:41:52;6.80;;;4.10;;
45356;SDS011;31092;51.924;21.448;2024-01-06T11:44:21;11.85;;;4.32;;
45356;SDS011;31092;51.924;21.448;2024-01-06T11:46:47;9.52;;;5.57;;
45356;SDS011;31092;51.924;21.448;2024-01-06T11:49:19;8.68;;;5.05;;
45356;SDS011;31092;51.924;21.448;2024-01-06T11:51:46;9.38;;;5.65;;
45356;SDS011;31092;51.924;21.448;2024-01-06T11:54:11;8.65;;;5.13;;
45356;SDS011;31092;51.924;21.448;2024-01-06T11:56:38;8.00;;;4.40;;
45356;SDS011;31092;51.924;21.448;2024-01-06T11:59:04;4.80;;;3.97;;
45356;SDS011;31092;51.924;21.448;2024-01-06T12:01:48;9.25;;;5.32;;
45356;SDS011;31092;51.924;21.448;2024-01-06T12:04:14;10.43;;;4.85;;
45356;SDS011;31092;51.924;21.448;2024-01-06T12:06:42;9.40;;;4.70;;
45356;SDS011;31092;51.924;21.448;2024-01-06T12:09:11;8.00;;;4.82;;
45356;SDS011;31092;51.924;21.448;2024-01-06T12:11:41;7.53;;;3.97;;
45356;SDS011;31092;51.924;21.448;2024-01-06T12:14:09;8.43;;;4.93;;
45356;SDS011;31092;51.924;21.448;2024-01-06T12:16:34;8.82;;;6.18;;
45356;SDS011;31092;51.924;21.448;2024-01-06T12:19:01;9.40;;;4.38;;
45356;SDS011;31092;51.924;21.448;2024-01-06T12:21:28;6.05;;;4.40;;
45356;SDS011;31092;51.924;21.448;2024-01-06T12:24:12;8.23;;;4.50;;
45356;SDS011;31092;51.924;21.448;2024-01-06T12:26:40;9.52;;;5.22;;
45356;SDS011;31092;51.924;21.448;2024-01-06T12:29:06;6.68;;;4.35;;
45356;SDS011;31092;51.924;21.448;2024-01-06T12:31:32;5.95;;;3.97;;
45356;SDS011;31092;51.924;21.448;2024-01-06T12:33:58;8.90;;;4.43;;
45356;SDS011;31092;51.924;21.448;2024-01-06T12:36:24;7.80;;;5.10;;
45356;SDS011;31092;51.924;21.448;2024-01-06T12:38:50;11.07;;;5.88;;
45356;SDS011;31092;51.924;21.448;2024-01-06T12:41:16;8.88;;;4.90;;
45356;SDS011;31092;51.924;21.448;2024-01-06T12:43:41;10.38;;;5.25;;
45356;SDS011;31092;51.924;21.448;2024-01-06T12:46:07;9.63;;;5.50;;
45356;SDS011;31092;51.924;21.448;2024-01-06T12:48:32;8.35;;;4.70;;
45356;SDS011;31092;51.924;21.448;2024-01-06T12:50:57;9.32;;;5.53;;
45356;SDS011;31092;51.924;21.448;2024-01-06T12:53:23;9.63;;;4.75;;
45356;SDS011;31092;51.924;21.448;2024-01-06T12:55:48;10.50;;;5.68;;
45356;SDS011;31092;51.924;21.448;2024-01-06T12:58:14;7.60;;;4.75;;
45356;SDS011;31092;51.924;21.448;2024-01-06T13:00:39;7.95;;;4.80;;
45356;SDS011;31092;51.924;21.448;2024-01-06T13:03:05;4.03;;;3.60;;
45356;SDS011;31092;51.924;21.448;2024-01-06T13:05:31;5.13;;;3.47;;
45356;SDS011;31092;51.924;21.448;2024-01-06T13:07:56;10.00;;;4.90;;
45356;SDS011;31092;51.924;21.448;2024-01-06T13:10:22;8.65;;;4.45;;
45356;SDS011;31092;51.924;21.448;2024-01-06T13:12:48;8.75;;;4.88;;
45356;SDS011;31092;51.924;21.448;2024-01-06T13:15:14;8.88;;;4.78;;
45356;SDS011;31092;51.924;21.448;2024-01-06T13:17:39;10.13;;;4.97;;
45356;SDS011;31092;51.924;21.448;2024-01-06T13:20:05;9.68;;;3.95;;
45356;SDS011;31092;51.924;21.448;2024-01-06T13:22:31;9.50;;;4.82;;
45356;SDS011;31092;51.924;21.448;2024-01-06T13:24:56;8.30;;;4.45;;
45356;SDS011;31092;51.924;21.448;2024-01-06T13:27:24;6.25;;;4.07;;
45356;SDS011;31092;51.924;21.448;2024-01-06T13:29:49;9.45;;;3.65;;
45356;SDS011;31092;51.924;21.448;2024-01-06T13:32:16;7.32;;;4.30;;
45356;SDS011;31092;51.924;21.448;2024-01-06T13:34:44;6.38;;;4.35;;
45356;SDS011;31092;51.924;21.448;2024-01-06T13:37:09;9.55;;;4.05;;
45356;SDS011;31092;51.924;21.448;2024-01-06T13:39:35;9.88;;;4.43;;
45356;SDS011;31092;51.924;21.448;2024-01-06T13:42:01;11.32;;;4.80;;
45356;SDS011;31092;51.924;21.448;2024-01-06T13:44:28;7.28;;;4.43;;
45356;SDS011;31092;51.924;21.448;2024-01-06T13:46:54;6.93;;;4.35;;
45356;SDS011;31092;51.924;21.448;2024-01-06T13:49:20;11.55;;;4.22;;
45356;SDS011;31092;51.924;21.448;2024-01-06T13:51:46;6.22;;;3.30;;
45356;SDS011;31092;51.924;21.448;2024-01-06T13:54:12;7.55;;;3.97;;
45356;SDS011;31092;51.924;21.448;2024-01-06T13:56:38;5.25;;;3.75;;
45356;SDS011;31092;51.924;21.448;2024-01-06T13:59:03;6.50;;;3.70;;
45356;SDS011;31092;51.924;21.448;2024-01-06T14:01:29;6.38;;;3.75;;
45356;SDS011;31092;51.924;21.448;2024-01-06T14:03:55;5.45;;;3.20;;
45356;SDS011;31092;51.924;21.448;2024-01-06T14:06:27;6.25;;;3.50;;
45356;SDS011;31092;51.924;21.448;2024-01-06T14:08:59;5.40;;;3.33;;
45356;SDS011;31092;51.924;21.448;2024-01-06T14:11:25;5.28;;;3.05;;
45356;SDS011;31092;51.924;21.448;2024-01-06T14:13:52;6.43;;;4.22;;
45356;SDS011;31092;51.924;21.448;2024-01-06T14:16:18;5.95;;;3.85;;
45356;SDS011;31092;51.924;21.448;2024-01-06T14:18:45;3.75;;;2.47;;
45356;SDS011;31092;51.924;21.448;2024-01-06T14:21:11;5.65;;;3.50;;
45356;SDS011;31092;51.924;21.448;2024-01-06T14:23:40;3.58;;;2.75;;
45356;SDS011;31092;51.924;21.448;2024-01-06T14:26:05;6.28;;;3.50;;
45356;SDS011;31092;51.924;21.448;2024-01-06T14:28:31;9.55;;;3.33;;
45356;SDS011;31092;51.924;21.448;2024-01-06T14:30:56;5.22;;;2.85;;